Flight Track Log - Related Links

Times and Time Zones

All times are in EDT time to prevent confusion due to time zone crossing. See the DAL4164 flight status page for this flight to view local times or setup timezone preferences in your user account.

Time Position Orientation Groundspeed Altitude Reporting Facility
EDT Latitude Longitude Course Direction KTS MPH feet Rate Location/Type
Wed 06:46:18 PM 42.9500 -71.4167 24° Northeast 173 199 1,000  Level KA90
Wed 06:47:03 PM 42.9844 -71.3958 24° Northeast 190 219 2,500 2,434 Climbing Boston Center
Wed 06:48:04 PM 43.0450 -71.3536 27° Northeast 234 269 5,300 2,710 Climbing Boston Center
Wed 06:49:07 PM 43.0986 -71.3983 329° Northwest 239 275 8,100 2,516 Climbing Boston Center
Wed 06:50:08 PM 43.1142 -71.4858 284° West 238 274 10,500 2,182 Climbing Boston Center
Wed 06:51:08 PM 43.1461 -71.5917 293° West 291 335 12,500 1,984 Climbing Boston Center
Wed 06:52:12 PM 43.1772 -71.6939 293° West 308 354 14,600 1,872 Climbing Boston Center
Wed 06:53:13 PM 43.1797 -71.8139 272° West 317 365 16,400 1,736 Climbing Boston Center
Wed 06:54:13 PM 43.1819 -71.9481 271° West 327 376 18,100 1,550 Climbing Boston Center
Wed 06:55:13 PM 43.1833 -72.0592 271° West 326 375 19,500 1,258 Climbing Boston Center
Wed 06:56:17 PM 43.1847 -72.1867 271° West 333 383 20,700 1,065 Climbing Boston Center
Wed 06:57:17 PM 43.1864 -72.3194 271° West 344 396 21,700 992 Climbing Boston Center
Wed 06:58:18 PM 43.1878 -72.4561 271° West 355 409 22,700 1,065 Climbing Boston Center
Wed 06:59:21 PM 43.1892 -72.6192 271° West 359 413 23,900 968 Climbing Boston Center
Wed 07:00:22 PM 43.1906 -72.7569 271° West 363 418 24,700 793 Climbing Boston Center
Wed 07:01:22 PM 43.1917 -72.8972 271° West 370 426 25,500 780 Climbing Boston Center
Wed 07:02:25 PM 43.1922 -73.0372 270° West 372 428 26,300 677 Climbing Boston Center
Wed 07:03:26 PM 43.1936 -73.1800 271° West 377 434 26,900 590 Climbing Boston Center
Wed 07:04:27 PM 43.1931 -73.3242 270° West 380 437 27,500 595 Climbing Boston Center
Wed 07:05:27 PM 43.1936 -73.4928 270° West 384 442 28,100 537 Climbing Boston Center
Wed 07:06:30 PM 43.1936 -73.6400 270° West 386 444 28,600 488 Climbing Boston Center
Wed 07:07:30 PM 43.1925 -73.7875 269° West 386 444 29,100 488 Climbing Boston Center
Wed 07:08:33 PM 43.1931 -73.9336 270° West 385 443 29,600 439 Climbing Boston Center
Wed 07:09:33 PM 43.1931 -74.0825 270° West 389 448 30,000 197 Climbing Boston Center
Wed 07:10:35 PM 43.1914 -74.2317 269° West 392 451 30,000  Level Boston Center
Wed 07:11:36 PM 43.1889 -74.3847 269° West 398 458 30,000  Level Boston Center
Wed 07:12:36 PM 43.1875 -74.5372 269° West 401 461 30,000  Level Boston Center
Wed 07:13:40 PM 43.1861 -74.7217 269° West 401 461 30,000  Level Boston Center
Wed 07:14:40 PM 43.1836 -74.8772 269° West 406 467 30,000  Level Boston Center
Wed 07:15:41 PM 43.1817 -75.0322 269° West 405 466 30,000  Level Boston Center
Wed 07:16:42 PM 43.1800 -75.1906 269° West 409 471 30,000  Level Boston Center
Wed 07:17:43 PM 43.1767 -75.3514 268° West 416 479 30,000  Level Boston Center
Wed 07:18:46 PM 43.1750 -75.5111 269° West 416 479 30,000  Level Boston Center
Wed 07:19:46 PM 43.1722 -75.6672 269° West 411 473 30,000  Level Boston Center
Wed 07:20:47 PM 43.1692 -75.8256 269° West 414 476 30,000  Level Boston Center
Wed 07:21:48 PM 43.1656 -75.9836 268° West 414 476 30,000  Level Boston Center
Wed 07:22:52 PM 43.1617 -76.1408 268° West 413 475 30,000  Level Boston Center
Wed 07:23:52 PM 43.1533 -76.2953 266° West 409 471 30,000  Level Boston Center
Wed 07:24:37 PM 43.1414 -76.4178 262° West 408 470 30,000  Level Cleveland Center
Wed 07:25:39 PM 43.1272 -76.5706 263° West 404 465 30,000  Level Cleveland Center
Wed 07:26:41 PM 43.1156 -76.7236 264° West 402 463 30,000  Level Cleveland Center
Wed 07:27:43 PM 43.0992 -76.9042 263° West 401 461 30,000  Level Cleveland Center
Wed 07:28:45 PM 43.0861 -77.0536 263° West 400 460 30,000  Level Cleveland Center
Wed 07:29:47 PM 43.0722 -77.1992 263° West 393 452 30,000  Level Cleveland Center
Wed 07:30:49 PM 43.0586 -77.3450 263° West 391 450 30,000  Level Cleveland Center
Wed 07:31:51 PM 43.0439 -77.4892 262° West 388 447 30,000  Level Cleveland Center
Wed 07:32:53 PM 43.0272 -77.6625 263° West 388 447 30,000  Level Cleveland Center
Wed 07:33:55 PM 43.0133 -77.8067 263° West 386 444 30,000 -629 Level Cleveland Center
Wed 07:34:57 PM 42.9992 -77.9522 262° West 391 450 28,700 -645 Descending Cleveland Center
Wed 07:37:00 PM 42.9661 -78.2293 261° West  Level FlightAware Approximate
Wed 07:37:01 PM 42.9711 -78.2436 261° West 387 445 28,000  Level Cleveland Center
Wed 07:38:03 PM 42.9531 -78.4175 262° West 385 443 28,000  Level Cleveland Center
Wed 07:39:05 PM 42.9383 -78.5614 262° West 385 443 28,000  Level Cleveland Center
Wed 07:40:07 PM 42.9206 -78.7061 261° West 389 448 28,000  Level Cleveland Center
Wed 07:41:09 PM 42.8992 -78.8528 259° West 394 453 28,000  Level Cleveland Center
Wed 07:42:12 PM 42.8778 -79.0000 259° West 397 457 28,000  Level Cleveland Center
Wed 07:43:14 PM 42.8564 -79.1486 259° West 401 461 28,000  Level Cleveland Center
Wed 07:44:16 PM 42.8300 -79.3269 259° West 404 465 28,000  Level Cleveland Center
Wed 07:45:18 PM 42.8083 -79.4714 258° West 389 448 28,000  Level Cleveland Center
Wed 07:46:20 PM 42.7867 -79.6108 258° West 379 436 28,000 -581 Level Cleveland Center
Wed 07:47:22 PM 42.7653 -79.7506 258° West 378 435 26,800 -968 Descending Cleveland Center
Wed 07:48:24 PM 42.7483 -79.8908 261° West 377 434 26,000 -387 Descending Cleveland Center
Wed 07:49:26 PM 42.7422 -80.0417 267° West 371 427 26,000  Level Cleveland Center
Wed 07:50:28 PM 42.7367 -80.1850 267° West 376 433 26,000  Level Cleveland Center
Wed 07:51:30 PM 42.7311 -80.3283 267° West 379 436 26,000  Level Cleveland Center
Wed 07:52:32 PM 42.7225 -80.4942 266° West 376 433 26,000  Level Cleveland Center
Wed 07:53:34 PM 42.7164 -80.6389 267° West 380 437 26,000 -48 Level Cleveland Center
Wed 07:54:36 PM 42.7103 -80.7869 267° West 391 450 25,900 -290 Descending Cleveland Center
Wed 07:55:38 PM 42.7017 -80.9300 265° West 380 437 25,400 -484 Descending Cleveland Center
Wed 07:56:40 PM 42.6847 -81.0706 261° West 375 432 24,900 -484 Descending Cleveland Center
Wed 07:57:42 PM 42.6681 -81.2111 261° West 375 432 24,400 -480 Descending Cleveland Center
Wed 07:58:45 PM 42.6525 -81.3519 262° West 375 432 23,900 -192 Descending Cleveland Center
Wed 07:59:47 PM 42.6331 -81.5167 261° West 375 432 24,000 48 Climbing Cleveland Center
Wed 08:00:49 PM 42.6167 -81.6578 261° West 377 434 24,000 -339 Level Cleveland Center
Wed 08:01:51 PM 42.6003 -81.7908 261° West 376 433 23,300 -1,403 Descending Cleveland Center
Wed 08:02:53 PM 42.5847 -81.9258 261° West 367 422 21,100 -2,129 Descending Cleveland Center
Wed 08:03:55 PM 42.5692 -82.0556 261° West 352 405 18,900 -2,158 Descending Cleveland Center
Wed 08:04:47 PM 42.5558 -82.1847 262° West 343 395 17,000 -2,226 Descending Cleveland Center
Wed 08:04:57 PM 42.5506 -82.2069 252° West 343 395 16,600 -2,036 Descending Cleveland Center
Wed 08:05:43 PM 42.5394 -82.3044 261° West 339 390 15,100 -1,905 Descending Cleveland Center
Wed 08:06:00 PM 42.5344 -82.3322 256° West 339 390 14,600 -2,066 Descending Cleveland Center
Wed 08:06:44 PM 42.5242 -82.4325 262° West 327 376 13,000 -1,935 Descending Cleveland Center
Wed 08:07:02 PM 42.5189 -82.4536 251° West 333 383 12,600 -896 Descending Cleveland Center
Wed 08:07:51 PM 42.5078 -82.5494 261° West 274 315 12,000 -581 Descending Cleveland Center
Wed 08:08:04 PM 42.5039 -82.5581 239° Southwest 295 339 12,000 -800 Level Cleveland Center
Wed 08:08:51 PM 42.4739 -82.6411 244° Southwest 267 307 11,200 -968 Descending Cleveland Center
Wed 08:09:06 PM 42.4703 -82.6467 229° Southwest 269 310 11,000 -1,548 Descending Cleveland Center
Wed 08:09:53 PM 42.4422 -82.7331 246° West 262 302 9,600 -1,742 Descending Cleveland Center
Wed 08:10:08 PM 42.4331 -82.7547 240° Southwest 264 304 9,200 -1,574 Descending Cleveland Center
Wed 08:10:54 PM 42.4083 -82.8247 244° Southwest 262 302 8,000 -1,452 Descending Cleveland Center
Wed 08:11:10 PM 42.4028 -82.8422 247° West 260 299 7,700 -1,091 Descending Cleveland Center
Wed 08:11:49 PM 42.4019 -82.9114 269° West 250 288 7,000 -677 Descending Cleveland Center
Wed 08:12:12 PM 42.3981 -82.9378 259° West 255 293 7,000 -896 Level Cleveland Center
Wed 08:12:56 PM 42.3944 -83.0122 266° West 251 289 6,000 -1,161 Descending Cleveland Center
Wed 08:13:14 PM 42.3925 -83.0297 261° West 249 287 5,800 -984 Descending Cleveland Center
Wed 08:13:57 PM 42.4000 -83.1061 278° West 239 275 5,000 -871 Descending Cleveland Center
Wed 08:14:16 PM 42.4008 -83.1200 275° West 246 283 4,900 -885 Descending Cleveland Center
Wed 08:14:58 PM 42.3900 -83.1811 257° West 204 235 4,100 -871 Descending Cleveland Center
Wed 08:15:18 PM 42.3864 -83.1875 233° Southwest 221 254 4,000 -590 Descending Cleveland Center
Wed 08:15:59 PM 42.3544 -83.2356 228° Southwest 170 196 3,500 -571 Descending Cleveland Center
Wed 08:16:21 PM 42.3417 -83.2428 203° Southwest 190 219 3,400 -612 Descending Cleveland Center
Wed 08:16:48 PM 42.3214 -83.2592 211° Southwest 168 193 3,000 -885 Descending Cleveland Center
Wed 08:17:22 PM 42.3006 -83.2725 205° Southwest 173 199 2,500 -822 Descending Cleveland Center
Wed 08:18:01 PM 42.2769 -83.2925 212° Southwest 124 143 2,000 -667 Descending Cleveland Center
Wed 08:18:25 PM 42.2675 -83.2972 200° South 140 161 1,800 -655 Descending Cleveland Center
Wed 08:18:56 PM 42.2503 -83.3114 211° Southwest 120 138 1,400 -677 Descending Cleveland Center
Wed 08:19:27 PM 42.2381 -83.3186 204° Southwest 125 144 1,100 -323 Descending Cleveland Center
Wed 08:20:29 PM 42.2089 -83.3406 209° Southwest 125 144 900 -194 Descending Cleveland Center
Wed 08:22:00 PM 42.2000 -83.3500 246° West  Level FlightAware Approximate
Wed 08:29:00 PM 42.2124 -83.3534 246° West  Level Estimated

Login

Don't have an account? Register now (free) for customized features, flight alerts, and more!